Airfield :
LOGIN :

Register | Disclaimer

   EN    FR    IT 

 










Legend :    VFR   Marginal VFR   IFR   Intensive IFR   Very Intensive IFR
Visi :
Ceiling :
>= 8 km
>= 3000ft
5 to 8 km
1000 to 3000 ft
1500m to 5 km
500 to 1000 ft
800 to 1500m
200 to 500 ft
< 800m
< 200 ft
Symbols :   Thunderstorms  Fog  Heavy snow  Heavy precipitations  Wind > 20 kt
SIGMETs :     Misc.  Thunderstorms  Icing  Turbulence  Mountain Waves  Volcanic Ashes






- Airport Elevation : 154 ft
- IATA code : PKV


ULOO - Pskov

CURRENT METAR :
  • 251400Z 18004MPS 140V210 9999 OVC026 03/00 Q1001 R19/290050 NOSIG RMK QFE747

EXPIRED METARs :
  • 251330Z 17003MPS 140V200 9999 OVC023 03/01 Q1001 R19/290050 NOSIG RMK QFE746
  • 251300Z 18004MPS 150V210 9999 FEW012 OVC028 03/01 Q1001 R19/290050 NOSIG RMK QFE746
  • 251230Z 17003MPS 130V200 9999 FEW012 OVC028 03/01 Q1001 R19/290050 NOSIG RMK QFE746
  • 251200Z 16004MPS 130V190 9999 SCT012 OVC030 03/02 Q1001 R19/290050 NOSIG RMK QFE746
  • 251130Z 16003MPS 120V200 9999 SCT008 OVC026 03/02 Q1000 R19/290050 NOSIG RMK QFE746
  • 251100Z 18003MPS 140V200 8000 BKN004 OVC012 03/02 Q1000 R19/290050 NOSIG RMK OBST OBSC QFE746

TAF AMD TAF ULOO
Valid from the 25 at 12:00 until the 25 at 21:00 UTC


251248Z 2512/2521 17003MPS 6000 FEW011 OVC025
TEMPO 2512/2515 -RA BKN006 OVC016
BECMG 2515/2516 OVC010
TEMPO 2516/2521 3100 -SHRASN BR BKN005 BKN016CB



MET'MAP, your aeronautical weather chart ! - Copyright ORBIFLY December 2007 - Disclaimer

ORBIFLY MET'MAP TEAM :

Programming & Development : Alexandra Zaïnal
Concept & original design : Baudouin d'Aumeries
Assistance for programming : Marc-Olivier Méhu
Technical & hardware support : Manuel Goepfert

Contact : metmap@orbifly.com




SOURCES & CREDITS :

   NOAA